sensor_id;sensor_type;location;lat;lon;timestamp;P1;durP1;ratioP1;P2;durP2;ratioP2
20861;SDS011;10591;52.532;13.348;2023-04-25T00:00:47;4.60;;;3.73;;
20861;SDS011;10591;52.532;13.348;2023-04-25T00:03:17;4.70;;;3.80;;
20861;SDS011;10591;52.532;13.348;2023-04-25T00:05:48;6.03;;;3.60;;
20861;SDS011;10591;52.532;13.348;2023-04-25T00:08:20;4.17;;;3.40;;
20861;SDS011;10591;52.532;13.348;2023-04-25T00:10:51;4.60;;;3.20;;
20861;SDS011;10591;52.532;13.348;2023-04-25T00:13:22;4.62;;;3.10;;
20861;SDS011;10591;52.532;13.348;2023-04-25T00:15:54;5.43;;;3.30;;
20861;SDS011;10591;52.532;13.348;2023-04-25T00:18:27;3.62;;;3.30;;
20861;SDS011;10591;52.532;13.348;2023-04-25T00:20:58;6.17;;;3.50;;
20861;SDS011;10591;52.532;13.348;2023-04-25T00:23:29;4.47;;;3.20;;
20861;SDS011;10591;52.532;13.348;2023-04-25T00:26:00;3.60;;;3.30;;
20861;SDS011;10591;52.532;13.348;2023-04-25T00:28:31;3.33;;;3.00;;
20861;SDS011;10591;52.532;13.348;2023-04-25T00:31:01;4.80;;;3.23;;
20861;SDS011;10591;52.532;13.348;2023-04-25T00:33:32;4.75;;;3.30;;
20861;SDS011;10591;52.532;13.348;2023-04-25T00:36:03;5.17;;;3.30;;
20861;SDS011;10591;52.532;13.348;2023-04-25T00:38:34;4.47;;;3.40;;
20861;SDS011;10591;52.532;13.348;2023-04-25T00:41:07;4.20;;;3.07;;
20861;SDS011;10591;52.532;13.348;2023-04-25T00:43:37;6.23;;;3.03;;
20861;SDS011;10591;52.532;13.348;2023-04-25T00:46:09;6.92;;;3.27;;
20861;SDS011;10591;52.532;13.348;2023-04-25T00:48:40;4.27;;;3.10;;
20861;SDS011;10591;52.532;13.348;2023-04-25T00:51:12;4.73;;;3.20;;
20861;SDS011;10591;52.532;13.348;2023-04-25T00:53:45;4.90;;;3.00;;
20861;SDS011;10591;52.532;13.348;2023-04-25T00:56:17;4.70;;;3.47;;
20861;SDS011;10591;52.532;13.348;2023-04-25T00:58:50;3.47;;;3.17;;
20861;SDS011;10591;52.532;13.348;2023-04-25T01:01:24;5.58;;;3.80;;
20861;SDS011;10591;52.532;13.348;2023-04-25T01:03:58;5.63;;;3.50;;
20861;SDS011;10591;52.532;13.348;2023-04-25T01:06:30;6.07;;;3.67;;
20861;SDS011;10591;52.532;13.348;2023-04-25T01:09:02;4.60;;;3.30;;
20861;SDS011;10591;52.532;13.348;2023-04-25T01:11:34;7.20;;;3.60;;
20861;SDS011;10591;52.532;13.348;2023-04-25T01:14:06;7.83;;;3.70;;
20861;SDS011;10591;52.532;13.348;2023-04-25T01:16:36;5.57;;;3.30;;
20861;SDS011;10591;52.532;13.348;2023-04-25T01:19:09;5.40;;;3.40;;
20861;SDS011;10591;52.532;13.348;2023-04-25T01:21:42;5.40;;;3.63;;
20861;SDS011;10591;52.532;13.348;2023-04-25T01:24:14;5.37;;;3.03;;
20861;SDS011;10591;52.532;13.348;2023-04-25T01:26:45;4.57;;;3.27;;
20861;SDS011;10591;52.532;13.348;2023-04-25T01:29:21;6.13;;;3.47;;
20861;SDS011;10591;52.532;13.348;2023-04-25T01:31:52;6.30;;;3.65;;
20861;SDS011;10591;52.532;13.348;2023-04-25T01:34:24;5.93;;;3.50;;
20861;SDS011;10591;52.532;13.348;2023-04-25T01:36:55;5.57;;;3.63;;
20861;SDS011;10591;52.532;13.348;2023-04-25T01:39:28;5.37;;;3.50;;
20861;SDS011;10591;52.532;13.348;2023-04-25T01:41:59;6.50;;;3.60;;
20861;SDS011;10591;52.532;13.348;2023-04-25T01:44:30;6.30;;;3.90;;
20861;SDS011;10591;52.532;13.348;2023-04-25T01:47:01;5.50;;;3.70;;
20861;SDS011;10591;52.532;13.348;2023-04-25T01:49:32;7.75;;;3.90;;
20861;SDS011;10591;52.532;13.348;2023-04-25T01:52:04;6.87;;;3.42;;
20861;SDS011;10591;52.532;13.348;2023-04-25T01:54:35;5.00;;;3.70;;
20861;SDS011;10591;52.532;13.348;2023-04-25T01:57:06;6.92;;;3.80;;
20861;SDS011;10591;52.532;13.348;2023-04-25T01:59:37;4.90;;;3.95;;
20861;SDS011;10591;52.532;13.348;2023-04-25T02:02:07;6.42;;;4.15;;
20861;SDS011;10591;52.532;13.348;2023-04-25T02:04:38;5.67;;;3.80;;
20861;SDS011;10591;52.532;13.348;2023-04-25T02:07:09;6.72;;;3.67;;
20861;SDS011;10591;52.532;13.348;2023-04-25T02:09:40;5.30;;;3.77;;
20861;SDS011;10591;52.532;13.348;2023-04-25T02:12:10;5.67;;;4.43;;
20861;SDS011;10591;52.532;13.348;2023-04-25T02:14:42;6.60;;;4.55;;
20861;SDS011;10591;52.532;13.348;2023-04-25T02:17:13;7.20;;;3.85;;
20861;SDS011;10591;52.532;13.348;2023-04-25T02:19:45;6.50;;;4.20;;
20861;SDS011;10591;52.532;13.348;2023-04-25T02:22:15;6.03;;;3.97;;
20861;SDS011;10591;52.532;13.348;2023-04-25T02:24:46;5.40;;;4.20;;
20861;SDS011;10591;52.532;13.348;2023-04-25T02:27:17;8.03;;;4.50;;
20861;SDS011;10591;52.532;13.348;2023-04-25T02:29:48;8.53;;;4.73;;
20861;SDS011;10591;52.532;13.348;2023-04-25T02:32:18;5.58;;;4.08;;
20861;SDS011;10591;52.532;13.348;2023-04-25T02:34:49;5.40;;;4.63;;
20861;SDS011;10591;52.532;13.348;2023-04-25T02:37:21;7.23;;;4.57;;
20861;SDS011;10591;52.532;13.348;2023-04-25T02:39:52;8.40;;;4.33;;
20861;SDS011;10591;52.532;13.348;2023-04-25T02:42:22;7.75;;;4.28;;
20861;SDS011;10591;52.532;13.348;2023-04-25T02:44:53;6.83;;;4.30;;
20861;SDS011;10591;52.532;13.348;2023-04-25T02:47:25;7.83;;;4.20;;
20861;SDS011;10591;52.532;13.348;2023-04-25T02:49:56;6.95;;;4.22;;
20861;SDS011;10591;52.532;13.348;2023-04-25T02:52:27;7.20;;;4.73;;
20861;SDS011;10591;52.532;13.348;2023-04-25T02:54:57;6.40;;;4.40;;
20861;SDS011;10591;52.532;13.348;2023-04-25T02:57:28;6.35;;;4.40;;
20861;SDS011;10591;52.532;13.348;2023-04-25T02:59:59;7.78;;;4.90;;
20861;SDS011;10591;52.532;13.348;2023-04-25T03:02:30;7.13;;;4.90;;
20861;SDS011;10591;52.532;13.348;2023-04-25T03:05:01;8.07;;;5.03;;
20861;SDS011;10591;52.532;13.348;2023-04-25T03:07:32;7.12;;;4.87;;
20861;SDS011;10591;52.532;13.348;2023-04-25T03:10:03;7.00;;;4.77;;
20861;SDS011;10591;52.532;13.348;2023-04-25T03:12:34;5.43;;;4.50;;
20861;SDS011;10591;52.532;13.348;2023-04-25T03:15:05;6.00;;;4.97;;
20861;SDS011;10591;52.532;13.348;2023-04-25T03:17:36;10.07;;;5.27;;
20861;SDS011;10591;52.532;13.348;2023-04-25T03:20:09;5.58;;;4.95;;
20861;SDS011;10591;52.532;13.348;2023-04-25T03:22:41;7.43;;;4.77;;
20861;SDS011;10591;52.532;13.348;2023-04-25T03:25:12;9.43;;;5.20;;
20861;SDS011;10591;52.532;13.348;2023-04-25T03:27:43;7.93;;;5.07;;
20861;SDS011;10591;52.532;13.348;2023-04-25T03:30:15;7.50;;;5.13;;
20861;SDS011;10591;52.532;13.348;2023-04-25T03:32:46;7.40;;;4.80;;
20861;SDS011;10591;52.532;13.348;2023-04-25T03:35:16;6.57;;;5.00;;
20861;SDS011;10591;52.532;13.348;2023-04-25T03:37:47;7.50;;;5.33;;
20861;SDS011;10591;52.532;13.348;2023-04-25T03:40:18;7.57;;;5.00;;
20861;SDS011;10591;52.532;13.348;2023-04-25T03:42:50;8.27;;;5.20;;
20861;SDS011;10591;52.532;13.348;2023-04-25T03:45:22;8.03;;;5.00;;
20861;SDS011;10591;52.532;13.348;2023-04-25T03:47:53;9.13;;;5.80;;
20861;SDS011;10591;52.532;13.348;2023-04-25T03:50:24;8.63;;;4.80;;
20861;SDS011;10591;52.532;13.348;2023-04-25T03:52:55;9.17;;;5.20;;
20861;SDS011;10591;52.532;13.348;2023-04-25T03:55:26;8.05;;;5.00;;
20861;SDS011;10591;52.532;13.348;2023-04-25T03:57:58;9.80;;;5.08;;
20861;SDS011;10591;52.532;13.348;2023-04-25T04:00:29;8.33;;;5.43;;
20861;SDS011;10591;52.532;13.348;2023-04-25T04:02:59;7.03;;;4.70;;
20861;SDS011;10591;52.532;13.348;2023-04-25T04:05:30;7.10;;;5.10;;
20861;SDS011;10591;52.532;13.348;2023-04-25T04:08:01;8.77;;;5.40;;
20861;SDS011;10591;52.532;13.348;2023-04-25T04:10:32;8.70;;;5.03;;
20861;SDS011;10591;52.532;13.348;2023-04-25T04:13:04;7.20;;;5.20;;
20861;SDS011;10591;52.532;13.348;2023-04-25T04:15:36;9.00;;;5.65;;
20861;SDS011;10591;52.532;13.348;2023-04-25T04:18:07;9.23;;;4.97;;
20861;SDS011;10591;52.532;13.348;2023-04-25T04:20:39;7.50;;;4.60;;
20861;SDS011;10591;52.532;13.348;2023-04-25T04:23:11;10.23;;;4.93;;
20861;SDS011;10591;52.532;13.348;2023-04-25T04:25:43;7.70;;;5.33;;
20861;SDS011;10591;52.532;13.348;2023-04-25T04:28:14;8.63;;;5.15;;
20861;SDS011;10591;52.532;13.348;2023-04-25T04:30:45;8.83;;;4.90;;
20861;SDS011;10591;52.532;13.348;2023-04-25T04:33:18;7.73;;;4.73;;
20861;SDS011;10591;52.532;13.348;2023-04-25T04:35:48;6.70;;;5.20;;
20861;SDS011;10591;52.532;13.348;2023-04-25T04:38:22;7.73;;;4.40;;
20861;SDS011;10591;52.532;13.348;2023-04-25T04:40:54;8.80;;;5.27;;
20861;SDS011;10591;52.532;13.348;2023-04-25T04:43:26;8.10;;;4.80;;
20861;SDS011;10591;52.532;13.348;2023-04-25T04:45:57;10.13;;;4.90;;
20861;SDS011;10591;52.532;13.348;2023-04-25T04:48:32;7.43;;;4.63;;
20861;SDS011;10591;52.532;13.348;2023-04-25T04:51:06;6.47;;;4.30;;
20861;SDS011;10591;52.532;13.348;2023-04-25T04:53:37;7.55;;;4.95;;
20861;SDS011;10591;52.532;13.348;2023-04-25T04:56:08;6.53;;;4.83;;
20861;SDS011;10591;52.532;13.348;2023-04-25T04:58:38;9.85;;;4.67;;
20861;SDS011;10591;52.532;13.348;2023-04-25T05:01:10;8.18;;;4.42;;
20861;SDS011;10591;52.532;13.348;2023-04-25T05:03:41;6.80;;;5.00;;
20861;SDS011;10591;52.532;13.348;2023-04-25T05:06:18;7.78;;;4.97;;
20861;SDS011;10591;52.532;13.348;2023-04-25T05:08:49;8.70;;;4.75;;
20861;SDS011;10591;52.532;13.348;2023-04-25T05:11:21;8.58;;;4.92;;
20861;SDS011;10591;52.532;13.348;2023-04-25T05:13:52;7.40;;;4.83;;
20861;SDS011;10591;52.532;13.348;2023-04-25T05:16:28;8.03;;;5.20;;
20861;SDS011;10591;52.532;13.348;2023-04-25T05:18:59;10.10;;;5.00;;
20861;SDS011;10591;52.532;13.348;2023-04-25T05:21:32;7.75;;;4.92;;
20861;SDS011;10591;52.532;13.348;2023-04-25T05:24:03;6.90;;;4.80;;
20861;SDS011;10591;52.532;13.348;2023-04-25T05:26:34;8.93;;;5.22;;
20861;SDS011;10591;52.532;13.348;2023-04-25T05:29:07;7.53;;;4.70;;
20861;SDS011;10591;52.532;13.348;2023-04-25T05:31:38;7.30;;;4.97;;
20861;SDS011;10591;52.532;13.348;2023-04-25T05:34:09;8.37;;;4.77;;
20861;SDS011;10591;52.532;13.348;2023-04-25T05:36:40;9.10;;;4.57;;
20861;SDS011;10591;52.532;13.348;2023-04-25T05:39:10;8.28;;;5.10;;
20861;SDS011;10591;52.532;13.348;2023-04-25T05:41:42;7.37;;;4.75;;
20861;SDS011;10591;52.532;13.348;2023-04-25T05:44:13;7.45;;;5.25;;
20861;SDS011;10591;52.532;13.348;2023-04-25T05:46:44;5.83;;;4.80;;
20861;SDS011;10591;52.532;13.348;2023-04-25T05:49:16;8.08;;;5.53;;
20861;SDS011;10591;52.532;13.348;2023-04-25T05:51:47;7.13;;;5.23;;
20861;SDS011;10591;52.532;13.348;2023-04-25T05:54:18;9.00;;;5.53;;
20861;SDS011;10591;52.532;13.348;2023-04-25T05:56:50;7.67;;;4.83;;
20861;SDS011;10591;52.532;13.348;2023-04-25T05:59:21;10.82;;;6.53;;
20861;SDS011;10591;52.532;13.348;2023-04-25T06:01:51;9.50;;;5.87;;
20861;SDS011;10591;52.532;13.348;2023-04-25T06:04:22;8.77;;;5.63;;
20861;SDS011;10591;52.532;13.348;2023-04-25T06:06:55;8.03;;;6.07;;
20861;SDS011;10591;52.532;13.348;2023-04-25T06:09:26;8.83;;;5.90;;
20861;SDS011;10591;52.532;13.348;2023-04-25T06:11:56;13.30;;;7.00;;
20861;SDS011;10591;52.532;13.348;2023-04-25T06:14:28;9.20;;;6.00;;
20861;SDS011;10591;52.532;13.348;2023-04-25T06:16:59;7.83;;;5.57;;
20861;SDS011;10591;52.532;13.348;2023-04-25T06:19:35;9.05;;;6.62;;
20861;SDS011;10591;52.532;13.348;2023-04-25T06:22:05;11.75;;;6.35;;
20861;SDS011;10591;52.532;13.348;2023-04-25T06:27:15;11.65;;;6.53;;
20861;SDS011;10591;52.532;13.348;2023-04-25T06:29:45;13.50;;;6.10;;
20861;SDS011;10591;52.532;13.348;2023-04-25T06:32:16;10.18;;;5.85;;
20861;SDS011;10591;52.532;13.348;2023-04-25T06:34:47;10.77;;;5.80;;
20861;SDS011;10591;52.532;13.348;2023-04-25T06:37:20;13.03;;;7.40;;
20861;SDS011;10591;52.532;13.348;2023-04-25T06:39:50;9.05;;;6.28;;
20861;SDS011;10591;52.532;13.348;2023-04-25T06:42:21;10.80;;;5.93;;
20861;SDS011;10591;52.532;13.348;2023-04-25T06:44:52;9.23;;;5.97;;
20861;SDS011;10591;52.532;13.348;2023-04-25T06:47:22;12.57;;;7.87;;
20861;SDS011;10591;52.532;13.348;2023-04-25T06:49:53;12.35;;;6.25;;
20861;SDS011;10591;52.532;13.348;2023-04-25T06:52:23;9.37;;;5.80;;
20861;SDS011;10591;52.532;13.348;2023-04-25T06:54:54;9.00;;;5.70;;
20861;SDS011;10591;52.532;13.348;2023-04-25T06:57:25;9.68;;;6.37;;
20861;SDS011;10591;52.532;13.348;2023-04-25T06:59:55;10.60;;;5.40;;
20861;SDS011;10591;52.532;13.348;2023-04-25T07:02:27;5.75;;;5.22;;
20861;SDS011;10591;52.532;13.348;2023-04-25T07:04:59;6.78;;;5.28;;
20861;SDS011;10591;52.532;13.348;2023-04-25T07:07:32;9.57;;;5.47;;
20861;SDS011;10591;52.532;13.348;2023-04-25T07:10:03;7.70;;;5.60;;
20861;SDS011;10591;52.532;13.348;2023-04-25T07:12:34;10.87;;;6.00;;
20861;SDS011;10591;52.532;13.348;2023-04-25T07:15:05;10.35;;;5.60;;
20861;SDS011;10591;52.532;13.348;2023-04-25T07:17:38;8.37;;;5.50;;
20861;SDS011;10591;52.532;13.348;2023-04-25T07:20:09;7.70;;;5.10;;
20861;SDS011;10591;52.532;13.348;2023-04-25T07:22:40;7.73;;;5.17;;
20861;SDS011;10591;52.532;13.348;2023-04-25T07:25:11;9.05;;;4.97;;
20861;SDS011;10591;52.532;13.348;2023-04-25T07:27:43;11.05;;;6.00;;
20861;SDS011;10591;52.532;13.348;2023-04-25T07:30:13;14.28;;;5.87;;
20861;SDS011;10591;52.532;13.348;2023-04-25T07:32:44;11.17;;;5.57;;
20861;SDS011;10591;52.532;13.348;2023-04-25T07:35:16;11.73;;;5.40;;
20861;SDS011;10591;52.532;13.348;2023-04-25T07:37:49;10.43;;;5.35;;
20861;SDS011;10591;52.532;13.348;2023-04-25T07:40:21;9.83;;;5.17;;
20861;SDS011;10591;52.532;13.348;2023-04-25T07:42:53;12.75;;;5.42;;
20861;SDS011;10591;52.532;13.348;2023-04-25T07:45:25;11.80;;;5.08;;
20861;SDS011;10591;52.532;13.348;2023-04-25T07:47:56;11.50;;;4.80;;
20861;SDS011;10591;52.532;13.348;2023-04-25T07:50:27;10.53;;;4.83;;
20861;SDS011;10591;52.532;13.348;2023-04-25T07:52:57;9.63;;;4.62;;
20861;SDS011;10591;52.532;13.348;2023-04-25T07:55:28;14.17;;;5.30;;
20861;SDS011;10591;52.532;13.348;2023-04-25T07:57:59;12.78;;;5.33;;
20861;SDS011;10591;52.532;13.348;2023-04-25T08:00:29;12.17;;;4.70;;
20861;SDS011;10591;52.532;13.348;2023-04-25T08:03:02;9.30;;;4.62;;
20861;SDS011;10591;52.532;13.348;2023-04-25T08:05:33;11.03;;;4.20;;
20861;SDS011;10591;52.532;13.348;2023-04-25T08:08:05;9.43;;;4.57;;
20861;SDS011;10591;52.532;13.348;2023-04-25T08:10:35;11.78;;;4.55;;
20861;SDS011;10591;52.532;13.348;2023-04-25T08:13:06;12.63;;;4.70;;
20861;SDS011;10591;52.532;13.348;2023-04-25T08:15:38;14.23;;;4.53;;
20861;SDS011;10591;52.532;13.348;2023-04-25T08:18:10;12.70;;;4.77;;
20861;SDS011;10591;52.532;13.348;2023-04-25T08:20:42;11.30;;;4.80;;
20861;SDS011;10591;52.532;13.348;2023-04-25T08:23:13;13.18;;;4.92;;
20861;SDS011;10591;52.532;13.348;2023-04-25T08:25:44;13.50;;;4.53;;
20861;SDS011;10591;52.532;13.348;2023-04-25T08:28:15;10.98;;;4.17;;
20861;SDS011;10591;52.532;13.348;2023-04-25T08:30:45;10.90;;;4.92;;
20861;SDS011;10591;52.532;13.348;2023-04-25T08:33:16;16.05;;;4.92;;
20861;SDS011;10591;52.532;13.348;2023-04-25T08:35:47;13.68;;;4.50;;
20861;SDS011;10591;52.532;13.348;2023-04-25T08:38:17;12.43;;;4.90;;
20861;SDS011;10591;52.532;13.348;2023-04-25T08:40:51;10.05;;;4.60;;
20861;SDS011;10591;52.532;13.348;2023-04-25T08:43:24;13.08;;;4.70;;
20861;SDS011;10591;52.532;13.348;2023-04-25T08:45:55;11.60;;;4.10;;
20861;SDS011;10591;52.532;13.348;2023-04-25T08:48:32;10.85;;;3.92;;
20861;SDS011;10591;52.532;13.348;2023-04-25T08:51:03;9.78;;;3.70;;
20861;SDS011;10591;52.532;13.348;2023-04-25T08:53:38;11.18;;;3.58;;
20861;SDS011;10591;52.532;13.348;2023-04-25T08:56:11;11.03;;;3.50;;
20861;SDS011;10591;52.532;13.348;2023-04-25T08:58:45;13.13;;;4.13;;
20861;SDS011;10591;52.532;13.348;2023-04-25T09:01:19;10.18;;;3.33;;
20861;SDS011;10591;52.532;13.348;2023-04-25T09:03:52;10.85;;;3.90;;
20861;SDS011;10591;52.532;13.348;2023-04-25T09:06:23;9.43;;;3.70;;
20861;SDS011;10591;52.532;13.348;2023-04-25T09:09:03;15.63;;;3.50;;
20861;SDS011;10591;52.532;13.348;2023-04-25T09:11:36;7.78;;;2.80;;
20861;SDS011;10591;52.532;13.348;2023-04-25T09:14:18;12.10;;;3.50;;
20861;SDS011;10591;52.532;13.348;2023-04-25T09:16:57;8.08;;;3.15;;
20861;SDS011;10591;52.532;13.348;2023-04-25T09:19:31;12.05;;;3.22;;
20861;SDS011;10591;52.532;13.348;2023-04-25T09:22:08;8.47;;;3.20;;
20861;SDS011;10591;52.532;13.348;2023-04-25T09:24:39;10.90;;;3.22;;
20861;SDS011;10591;52.532;13.348;2023-04-25T09:27:16;11.03;;;3.90;;
20861;SDS011;10591;52.532;13.348;2023-04-25T09:29:49;9.65;;;3.30;;
20861;SDS011;10591;52.532;13.348;2023-04-25T09:32:23;9.07;;;3.27;;
20861;SDS011;10591;52.532;13.348;2023-04-25T09:34:55;9.53;;;3.17;;
20861;SDS011;10591;52.532;13.348;2023-04-25T09:37:28;8.50;;;3.83;;
20861;SDS011;10591;52.532;13.348;2023-04-25T09:40:00;9.15;;;3.12;;
20861;SDS011;10591;52.532;13.348;2023-04-25T09:42:41;7.67;;;2.70;;
20861;SDS011;10591;52.532;13.348;2023-04-25T09:45:12;7.72;;;2.90;;
20861;SDS011;10591;52.532;13.348;2023-04-25T09:47:43;6.33;;;2.80;;
20861;SDS011;10591;52.532;13.348;2023-04-25T09:50:17;8.28;;;3.00;;
20861;SDS011;10591;52.532;13.348;2023-04-25T09:53:02;5.50;;;2.70;;
20861;SDS011;10591;52.532;13.348;2023-04-25T09:55:28;9.28;;;3.00;;
20861;SDS011;10591;52.532;13.348;2023-04-25T09:58:03;6.37;;;2.98;;
20861;SDS011;10591;52.532;13.348;2023-04-25T10:00:35;7.15;;;2.90;;
20861;SDS011;10591;52.532;13.348;2023-04-25T10:03:08;9.00;;;2.80;;
20861;SDS011;10591;52.532;13.348;2023-04-25T10:05:39;6.72;;;2.80;;
20861;SDS011;10591;52.532;13.348;2023-04-25T10:08:12;6.00;;;2.55;;
20861;SDS011;10591;52.532;13.348;2023-04-25T10:10:45;7.72;;;3.15;;
20861;SDS011;10591;52.532;13.348;2023-04-25T10:13:19;10.18;;;3.90;;
20861;SDS011;10591;52.532;13.348;2023-04-25T10:15:50;6.80;;;2.60;;
20861;SDS011;10591;52.532;13.348;2023-04-25T10:18:24;8.20;;;2.70;;
20861;SDS011;10591;52.532;13.348;2023-04-25T10:21:01;7.70;;;3.05;;
20861;SDS011;10591;52.532;13.348;2023-04-25T10:23:30;8.75;;;3.10;;
20861;SDS011;10591;52.532;13.348;2023-04-25T10:26:03;7.58;;;2.77;;
20861;SDS011;10591;52.532;13.348;2023-04-25T10:29:21;9.25;;;3.10;;
20861;SDS011;10591;52.532;13.348;2023-04-25T10:31:10;7.67;;;3.02;;
20861;SDS011;10591;52.532;13.348;2023-04-25T10:33:42;6.50;;;2.70;;
20861;SDS011;10591;52.532;13.348;2023-04-25T10:36:14;10.88;;;2.90;;
20861;SDS011;10591;52.532;13.348;2023-04-25T10:38:47;6.70;;;2.55;;
20861;SDS011;10591;52.532;13.348;2023-04-25T10:41:23;9.83;;;2.80;;
20861;SDS011;10591;52.532;13.348;2023-04-25T10:44:04;5.97;;;2.47;;
20861;SDS011;10591;52.532;13.348;2023-04-25T10:46:31;5.83;;;2.55;;
20861;SDS011;10591;52.532;13.348;2023-04-25T10:49:05;9.20;;;2.47;;
20861;SDS011;10591;52.532;13.348;2023-04-25T10:51:40;5.42;;;2.75;;
20861;SDS011;10591;52.532;13.348;2023-04-25T10:54:13;8.03;;;3.02;;
20861;SDS011;10591;52.532;13.348;2023-04-25T10:56:48;7.10;;;2.75;;
20861;SDS011;10591;52.532;13.348;2023-04-25T10:59:20;7.80;;;3.72;;
20861;SDS011;10591;52.532;13.348;2023-04-25T11:01:53;7.28;;;3.30;;
20861;SDS011;10591;52.532;13.348;2023-04-25T11:04:29;7.27;;;3.67;;
20861;SDS011;10591;52.532;13.348;2023-04-25T11:09:40;6.67;;;2.90;;
20861;SDS011;10591;52.532;13.348;2023-04-25T11:12:11;5.60;;;2.58;;
20861;SDS011;10591;52.532;13.348;2023-04-25T11:14:47;9.85;;;2.90;;
20861;SDS011;10591;52.532;13.348;2023-04-25T11:17:18;7.33;;;2.65;;
20861;SDS011;10591;52.532;13.348;2023-04-25T11:19:49;8.40;;;2.80;;
20861;SDS011;10591;52.532;13.348;2023-04-25T11:22:20;6.83;;;2.58;;
20861;SDS011;10591;52.532;13.348;2023-04-25T11:24:52;7.55;;;2.83;;
20861;SDS011;10591;52.532;13.348;2023-04-25T11:27:25;6.28;;;2.67;;
20861;SDS011;10591;52.532;13.348;2023-04-25T11:29:56;7.30;;;3.00;;
20861;SDS011;10591;52.532;13.348;2023-04-25T11:32:28;5.63;;;3.10;;
20861;SDS011;10591;52.532;13.348;2023-04-25T11:34:59;5.20;;;2.42;;
20861;SDS011;10591;52.532;13.348;2023-04-25T11:37:32;5.60;;;2.50;;
20861;SDS011;10591;52.532;13.348;2023-04-25T11:40:03;6.37;;;2.35;;
20861;SDS011;10591;52.532;13.348;2023-04-25T11:42:37;6.03;;;2.33;;
20861;SDS011;10591;52.532;13.348;2023-04-25T11:45:10;6.35;;;2.65;;
20861;SDS011;10591;52.532;13.348;2023-04-25T11:47:40;7.20;;;2.77;;
20861;SDS011;10591;52.532;13.348;2023-04-25T11:50:11;6.28;;;2.47;;
20861;SDS011;10591;52.532;13.348;2023-04-25T11:52:43;7.30;;;2.27;;
20861;SDS011;10591;52.532;13.348;2023-04-25T11:55:16;6.42;;;2.45;;
20861;SDS011;10591;52.532;13.348;2023-04-25T11:57:49;5.47;;;2.33;;
20861;SDS011;10591;52.532;13.348;2023-04-25T12:00:21;6.20;;;2.90;;
20861;SDS011;10591;52.532;13.348;2023-04-25T12:02:53;6.85;;;2.40;;
20861;SDS011;10591;52.532;13.348;2023-04-25T12:05:27;6.62;;;2.77;;
20861;SDS011;10591;52.532;13.348;2023-04-25T12:08:09;6.40;;;2.52;;
20861;SDS011;10591;52.532;13.348;2023-04-25T12:10:42;7.25;;;3.08;;
20861;SDS011;10591;52.532;13.348;2023-04-25T12:13:23;5.43;;;2.73;;
20861;SDS011;10591;52.532;13.348;2023-04-25T12:15:56;5.62;;;2.45;;
20861;SDS011;10591;52.532;13.348;2023-04-25T12:18:27;7.35;;;3.02;;
20861;SDS011;10591;52.532;13.348;2023-04-25T12:20:58;7.55;;;2.75;;
20861;SDS011;10591;52.532;13.348;2023-04-25T12:23:28;7.00;;;2.90;;
20861;SDS011;10591;52.532;13.348;2023-04-25T12:26:00;4.92;;;2.37;;
20861;SDS011;10591;52.532;13.348;2023-04-25T12:28:31;22.42;;;5.60;;
20861;SDS011;10591;52.532;13.348;2023-04-25T12:31:04;8.98;;;2.60;;
20861;SDS011;10591;52.532;13.348;2023-04-25T12:33:37;6.63;;;2.47;;
20861;SDS011;10591;52.532;13.348;2023-04-25T12:36:08;6.97;;;2.55;;
20861;SDS011;10591;52.532;13.348;2023-04-25T12:38:41;4.30;;;2.30;;
20861;SDS011;10591;52.532;13.348;2023-04-25T12:41:12;4.22;;;2.42;;
20861;SDS011;10591;52.532;13.348;2023-04-25T12:43:43;5.97;;;3.02;;
20861;SDS011;10591;52.532;13.348;2023-04-25T12:46:14;7.70;;;4.15;;
20861;SDS011;10591;52.532;13.348;2023-04-25T12:48:44;5.33;;;2.40;;
20861;SDS011;10591;52.532;13.348;2023-04-25T12:51:15;5.47;;;2.33;;
20861;SDS011;10591;52.532;13.348;2023-04-25T12:53:46;4.00;;;2.30;;
20861;SDS011;10591;52.532;13.348;2023-04-25T12:56:16;5.17;;;2.27;;
20861;SDS011;10591;52.532;13.348;2023-04-25T12:58:49;6.62;;;2.42;;
20861;SDS011;10591;52.532;13.348;2023-04-25T13:01:21;4.75;;;2.10;;
20861;SDS011;10591;52.532;13.348;2023-04-25T13:03:52;5.87;;;2.40;;
20861;SDS011;10591;52.532;13.348;2023-04-25T13:06:23;4.75;;;2.20;;
20861;SDS011;10591;52.532;13.348;2023-04-25T13:08:55;5.28;;;2.20;;
20861;SDS011;10591;52.532;13.348;2023-04-25T13:11:25;2.98;;;1.92;;
20861;SDS011;10591;52.532;13.348;2023-04-25T13:13:56;5.30;;;1.70;;
20861;SDS011;10591;52.532;13.348;2023-04-25T13:16:28;6.78;;;1.92;;
20861;SDS011;10591;52.532;13.348;2023-04-25T13:18:59;5.87;;;1.98;;
20861;SDS011;10591;52.532;13.348;2023-04-25T13:21:30;4.47;;;2.40;;
20861;SDS011;10591;52.532;13.348;2023-04-25T13:24:03;5.12;;;2.00;;
20861;SDS011;10591;52.532;13.348;2023-04-25T13:26:35;5.47;;;2.50;;
20861;SDS011;10591;52.532;13.348;2023-04-25T13:29:06;4.60;;;2.20;;
20861;SDS011;10591;52.532;13.348;2023-04-25T13:31:37;4.58;;;2.15;;
20861;SDS011;10591;52.532;13.348;2023-04-25T13:34:08;2.62;;;1.95;;
20861;SDS011;10591;52.532;13.348;2023-04-25T13:36:40;5.62;;;2.25;;
20861;SDS011;10591;52.532;13.348;2023-04-25T13:39:11;6.83;;;2.42;;
20861;SDS011;10591;52.532;13.348;2023-04-25T13:41:44;5.97;;;2.37;;
20861;SDS011;10591;52.532;13.348;2023-04-25T13:44:14;4.97;;;2.58;;
20861;SDS011;10591;52.532;13.348;2023-04-25T13:46:45;4.78;;;2.27;;
20861;SDS011;10591;52.532;13.348;2023-04-25T13:49:16;4.50;;;2.30;;
20861;SDS011;10591;52.532;13.348;2023-04-25T13:51:48;5.35;;;2.12;;
20861;SDS011;10591;52.532;13.348;2023-04-25T13:54:19;7.20;;;2.22;;
20861;SDS011;10591;52.532;13.348;2023-04-25T13:56:49;7.30;;;2.30;;
20861;SDS011;10591;52.532;13.348;2023-04-25T13:59:21;5.30;;;2.62;;
20861;SDS011;10591;52.532;13.348;2023-04-25T14:01:52;6.55;;;2.40;;
20861;SDS011;10591;52.532;13.348;2023-04-25T14:04:25;6.47;;;2.75;;
20861;SDS011;10591;52.532;13.348;2023-04-25T14:06:57;8.08;;;2.22;;
20861;SDS011;10591;52.532;13.348;2023-04-25T14:09:27;6.95;;;2.40;;
20861;SDS011;10591;52.532;13.348;2023-04-25T14:11:58;5.47;;;2.58;;
20861;SDS011;10591;52.532;13.348;2023-04-25T14:14:29;5.37;;;2.42;;
20861;SDS011;10591;52.532;13.348;2023-04-25T14:16:59;7.27;;;2.67;;
20861;SDS011;10591;52.532;13.348;2023-04-25T14:19:30;5.67;;;2.27;;
20861;SDS011;10591;52.532;13.348;2023-04-25T14:22:00;3.52;;;2.02;;
20861;SDS011;10591;52.532;13.348;2023-04-25T14:24:32;5.80;;;2.10;;
20861;SDS011;10591;52.532;13.348;2023-04-25T14:27:03;2.83;;;2.30;;
20861;SDS011;10591;52.532;13.348;2023-04-25T14:29:34;6.22;;;2.37;;
20861;SDS011;10591;52.532;13.348;2023-04-25T14:32:04;6.47;;;2.33;;
20861;SDS011;10591;52.532;13.348;2023-04-25T14:34:35;5.50;;;2.17;;
20861;SDS011;10591;52.532;13.348;2023-04-25T14:37:05;3.67;;;1.77;;
20861;SDS011;10591;52.532;13.348;2023-04-25T14:39:36;4.53;;;2.17;;
20861;SDS011;10591;52.532;13.348;2023-04-25T14:42:07;5.53;;;2.20;;
20861;SDS011;10591;52.532;13.348;2023-04-25T14:44:37;5.60;;;2.35;;
20861;SDS011;10591;52.532;13.348;2023-04-25T14:47:08;6.70;;;2.42;;
20861;SDS011;10591;52.532;13.348;2023-04-25T14:49:39;4.30;;;2.08;;
20861;SDS011;10591;52.532;13.348;2023-04-25T14:52:10;5.60;;;2.27;;
20861;SDS011;10591;52.532;13.348;2023-04-25T14:54:40;6.10;;;2.33;;
20861;SDS011;10591;52.532;13.348;2023-04-25T14:57:11;4.10;;;2.30;;
20861;SDS011;10591;52.532;13.348;2023-04-25T14:59:41;4.90;;;2.75;;
20861;SDS011;10591;52.532;13.348;2023-04-25T15:02:12;5.78;;;2.20;;
20861;SDS011;10591;52.532;13.348;2023-04-25T15:04:43;4.40;;;2.10;;